createdAt,value
2022-09-15T00:00:38.201Z,9.745384
2022-09-15T00:01:38.229Z,9.745577
2022-09-15T00:02:38.207Z,9.745493
2022-09-15T00:03:38.177Z,9.745430
2022-09-15T00:04:38.194Z,9.745193
2022-09-15T00:05:38.158Z,9.745433
2022-09-15T00:06:38.157Z,9.745423
2022-09-15T00:07:38.146Z,9.745297
2022-09-15T00:08:38.139Z,9.745348
2022-09-15T00:09:38.158Z,9.745367
2022-09-15T00:10:38.126Z,9.745519
2022-09-15T00:11:38.115Z,9.745901
2022-09-15T00:12:38.119Z,9.745871
2022-09-15T00:13:38.100Z,9.745578
2022-09-15T00:14:38.119Z,9.745837
2022-09-15T00:15:38.087Z,9.745690
2022-09-15T00:16:38.155Z,9.745796
2022-09-15T00:17:38.068Z,9.745560
2022-09-15T00:18:38.063Z,9.745430
2022-09-15T00:19:38.079Z,9.744889
2022-09-15T00:20:38.047Z,9.745728
2022-09-15T00:21:38.034Z,9.745723
2022-09-15T00:22:38.032Z,9.745674
2022-09-15T00:23:38.024Z,9.745579
2022-09-15T00:24:38.041Z,9.745594
2022-09-15T00:25:38.003Z,9.745421
2022-09-15T00:26:38.072Z,9.745325
2022-09-15T00:27:37.987Z,9.745306
2022-09-15T00:28:38.011Z,9.745342
2022-09-15T00:29:38.006Z,9.745455
2022-09-15T00:30:38.006Z,9.745455
2022-09-15T00:31:37.961Z,9.745457
2022-09-15T00:32:37.972Z,9.745466
2022-09-15T00:33:37.946Z,9.745228
2022-09-15T00:34:37.961Z,9.745306
2022-09-15T00:35:37.930Z,9.745390
2022-09-15T00:36:37.918Z,9.745501
2022-09-15T00:37:37.906Z,9.745728
2022-09-15T00:38:37.922Z,9.745477
2022-09-15T00:39:37.917Z,9.745438
2022-09-15T00:40:37.888Z,9.745375
2022-09-15T00:41:37.877Z,9.745394
2022-09-15T00:42:37.867Z,9.745433
2022-09-15T00:43:37.865Z,9.745623
2022-09-15T00:44:37.877Z,9.745235
2022-09-15T00:45:37.870Z,9.745299
2022-09-15T00:46:38.834Z,9.745336
2022-09-15T00:47:37.828Z,9.745415
2022-09-15T00:48:37.821Z,9.745402
2022-09-15T00:49:37.839Z,9.745482
2022-09-15T00:50:37.806Z,9.745404
2022-09-15T00:51:37.798Z,9.745333
2022-09-15T00:52:37.780Z,9.745237
2022-09-15T00:53:38.787Z,9.745421
2022-09-15T00:54:37.795Z,9.745234
2022-09-15T00:55:37.766Z,9.745115
2022-09-15T00:56:37.763Z,9.744944
2022-09-15T00:57:37.746Z,9.745184
2022-09-15T00:58:37.745Z,9.745421
2022-09-15T00:59:37.762Z,9.745262
2022-09-15T01:00:37.726Z,9.745246
2022-09-15T01:01:37.799Z,9.745157
2022-09-15T01:02:37.769Z,9.745257
2022-09-15T01:03:37.704Z,9.745541
2022-09-15T01:04:37.721Z,9.745470
2022-09-15T01:05:37.690Z,9.745296
2022-09-15T01:06:37.681Z,9.745311
2022-09-15T01:07:37.673Z,9.745259
2022-09-15T01:08:37.666Z,9.745061
2022-09-15T01:09:37.689Z,9.745322
2022-09-15T01:10:37.647Z,9.745150
2022-09-15T01:11:37.637Z,9.745425
2022-09-15T01:12:37.631Z,9.745315
2022-09-15T01:13:37.619Z,9.745202
2022-09-15T01:14:37.645Z,9.745308
2022-09-15T01:15:37.616Z,9.745092
2022-09-15T01:16:37.710Z,9.745086
2022-09-15T01:17:37.594Z,9.745270
2022-09-15T01:18:37.586Z,9.745323
2022-09-15T01:19:37.586Z,9.745245
2022-09-15T01:20:37.600Z,9.745299
2022-09-15T01:21:37.570Z,9.745353
2022-09-15T01:22:37.558Z,9.745351
2022-09-15T01:23:37.551Z,9.745249
2022-09-15T01:24:37.542Z,9.745311
2022-09-15T01:25:37.562Z,9.745320
2022-09-15T01:26:37.532Z,9.745483
2022-09-15T01:27:42.463Z,9.745446
2022-09-15T01:28:39.509Z,9.745514
2022-09-15T01:29:37.500Z,9.745432
2022-09-15T01:30:37.544Z,9.745369
2022-09-15T01:31:37.536Z,9.745426
2022-09-15T01:32:37.475Z,9.745443
2022-09-15T01:33:37.472Z,9.745444
2022-09-15T01:34:37.460Z,9.745543
2022-09-15T01:35:37.478Z,9.745318
2022-09-15T01:36:37.449Z,9.745624
2022-09-15T01:37:37.440Z,9.745589
2022-09-15T01:38:37.430Z,9.745480
2022-09-15T01:39:37.418Z,9.745776
2022-09-15T01:40:37.438Z,9.745490
2022-09-15T01:41:37.404Z,9.745458
2022-09-15T01:42:37.395Z,9.745517
2022-09-15T01:43:37.385Z,9.745539
2022-09-15T01:44:37.383Z,9.745582
2022-09-15T01:45:37.485Z,9.745525
2022-09-15T01:46:37.367Z,9.745527
2022-09-15T01:47:37.362Z,9.745510
2022-09-15T01:48:37.348Z,9.745538
2022-09-15T01:49:37.341Z,9.745606
2022-09-15T01:50:37.359Z,9.745793
2022-09-15T01:51:37.332Z,9.745604
2022-09-15T01:52:37.320Z,9.745660
2022-09-15T01:53:37.296Z,9.745665
2022-09-15T01:54:38.304Z,9.745519
2022-09-15T01:55:37.317Z,9.745545
2022-09-15T01:56:37.285Z,9.745774
2022-09-15T01:57:37.283Z,9.745780
2022-09-15T01:58:37.269Z,9.745715
2022-09-15T01:59:37.262Z,9.745645
2022-09-15T02:00:37.286Z,9.745378
2022-09-15T02:01:37.290Z,9.745544
2022-09-15T02:02:38.339Z,9.745439
2022-09-15T02:03:37.229Z,9.745319
2022-09-15T02:04:37.224Z,9.745042
2022-09-15T02:05:37.241Z,9.745046
2022-09-15T02:06:37.209Z,9.745255
2022-09-15T02:07:37.197Z,9.745369
2022-09-15T02:08:37.192Z,9.745333
2022-09-15T02:09:37.181Z,9.745288
2022-09-15T02:10:37.199Z,9.745028
2022-09-15T02:11:37.170Z,9.744955
2022-09-15T02:12:37.159Z,9.744972
2022-09-15T02:13:37.151Z,9.745271
2022-09-15T02:14:37.143Z,9.745211
2022-09-15T02:15:37.160Z,9.745259
2022-09-15T02:16:37.193Z,9.745354
2022-09-15T02:17:37.124Z,9.745433
2022-09-15T02:18:37.110Z,9.745299
2022-09-15T02:19:37.103Z,9.745429
2022-09-15T02:20:37.123Z,9.745463
2022-09-15T02:21:37.094Z,9.745487
2022-09-15T02:22:37.081Z,9.745346
2022-09-15T02:23:37.072Z,9.745659
2022-09-15T02:24:37.063Z,9.745617
2022-09-15T02:25:37.076Z,9.745500
2022-09-15T02:26:37.046Z,9.745765
2022-09-15T02:27:37.039Z,9.745552
2022-09-15T02:28:37.028Z,9.745177
2022-09-15T02:29:37.022Z,9.745365
2022-09-15T02:30:37.047Z,9.745361
2022-09-15T02:31:37.079Z,9.745312
2022-09-15T02:32:37.006Z,9.745241
2022-09-15T02:33:36.990Z,9.745324
2022-09-15T02:34:37.084Z,9.745405
2022-09-15T02:35:36.994Z,9.745420
2022-09-15T02:36:36.961Z,9.745295
2022-09-15T02:37:36.951Z,9.745329
2022-09-15T02:38:36.945Z,9.745435
2022-09-15T02:39:36.940Z,9.745385
2022-09-15T02:40:36.928Z,9.745433
2022-09-15T02:41:36.942Z,9.745393
2022-09-15T02:42:36.910Z,9.745418
2022-09-15T02:43:36.903Z,9.745335
2022-09-15T02:44:36.897Z,9.745276
2022-09-15T02:45:36.971Z,9.745150
2022-09-15T02:46:36.875Z,9.745382
2022-09-15T02:47:36.870Z,9.745464
2022-09-15T02:48:36.858Z,9.745313
2022-09-15T02:49:36.852Z,9.745358
2022-09-15T02:50:36.840Z,9.745390
2022-09-15T02:51:36.860Z,9.745289
2022-09-15T02:52:37.825Z,9.745394
2022-09-15T02:53:36.819Z,9.745452
2022-09-15T02:54:36.818Z,9.745605
2022-09-15T02:55:36.832Z,9.745728
2022-09-15T02:56:36.792Z,9.745358
2022-09-15T02:57:36.789Z,9.745281
2022-09-15T02:58:36.778Z,9.744928
2022-09-15T02:59:36.776Z,9.745242
2022-09-15T03:00:36.826Z,9.745310
2022-09-15T03:01:36.807Z,9.745435
2022-09-15T03:02:36.750Z,9.745206
2022-09-15T03:03:41.024Z,9.745290
2022-09-15T03:04:38.734Z,9.746138
2022-09-15T03:05:36.728Z,9.745858
2022-09-15T03:06:36.837Z,9.745821
2022-09-15T03:07:36.708Z,9.745584
2022-09-15T03:08:36.702Z,9.745467
2022-09-15T03:09:36.696Z,9.745152
2022-09-15T03:10:36.683Z,9.745658
2022-09-15T03:11:36.702Z,9.746041
2022-09-15T03:12:36.672Z,9.745496
2022-09-15T03:13:36.660Z,9.745700
2022-09-15T03:14:36.655Z,9.745490
2022-09-15T03:15:36.648Z,9.744862
2022-09-15T03:16:36.733Z,9.745142
2022-09-15T03:17:36.634Z,9.745130
2022-09-15T03:18:36.621Z,9.745130
2022-09-15T03:19:36.611Z,9.745130
2022-09-15T03:20:36.609Z,9.745130
2022-09-15T03:21:36.627Z,9.745130
2022-09-15T03:22:36.589Z,9.745130
2022-09-15T03:23:36.579Z,9.745756
2022-09-15T03:24:36.575Z,9.745628
2022-09-15T03:25:36.573Z,9.745770
2022-09-15T03:26:36.593Z,9.745533
2022-09-15T03:27:36.563Z,9.745455
2022-09-15T03:28:36.566Z,9.745361
2022-09-15T03:29:36.542Z,9.745205
2022-09-15T03:30:36.531Z,9.745338
2022-09-15T03:31:36.629Z,9.745548
2022-09-15T03:32:36.519Z,9.745640
2022-09-15T03:33:36.512Z,9.745463
2022-09-15T03:34:36.501Z,9.744914
2022-09-15T03:35:36.495Z,9.744914
2022-09-15T03:36:36.514Z,9.744914
2022-09-15T03:37:36.488Z,9.744914
2022-09-15T03:38:36.474Z,9.744914
2022-09-15T03:39:36.466Z,9.744914
2022-09-15T03:40:36.463Z,9.744914
2022-09-15T03:41:36.476Z,9.744914
2022-09-15T03:42:36.446Z,9.744914
2022-09-15T03:43:36.434Z,9.744914
2022-09-15T03:44:36.432Z,9.744914
2022-09-15T03:45:36.465Z,9.744914
2022-09-15T03:46:36.438Z,9.744914
2022-09-15T03:47:36.410Z,9.744914
2022-09-15T03:48:36.399Z,9.744914
2022-09-15T03:49:36.398Z,9.744914
2022-09-15T03:50:36.385Z,9.744914
2022-09-15T03:51:36.404Z,9.745741
2022-09-15T03:52:36.364Z,9.745609
2022-09-15T03:53:36.361Z,9.745303
2022-09-15T03:54:36.351Z,9.745522
2022-09-15T03:55:36.348Z,9.745527
2022-09-15T03:56:36.370Z,9.745522
2022-09-15T03:57:36.329Z,9.745198
2022-09-15T03:58:36.321Z,9.745716
2022-09-15T03:59:36.317Z,9.745579
2022-09-15T04:00:36.329Z,9.745859
2022-09-15T04:01:36.350Z,9.745680
2022-09-15T04:02:36.272Z,9.745981
2022-09-15T04:03:43.280Z,9.745972
2022-09-15T04:04:38.268Z,9.745964
2022-09-15T04:05:36.260Z,9.745878
2022-09-15T04:06:36.255Z,9.745853
2022-09-15T04:07:36.274Z,9.745423
2022-09-15T04:08:36.245Z,9.745831
2022-09-15T04:09:36.232Z,9.745786
2022-09-15T04:10:36.222Z,9.746375
2022-09-15T04:11:36.211Z,9.746161
2022-09-15T04:12:36.232Z,9.746206
2022-09-15T04:13:36.196Z,9.746572
2022-09-15T04:14:36.190Z,9.746041
2022-09-15T04:15:36.183Z,9.745614
2022-09-15T04:16:36.260Z,9.745643
2022-09-15T04:17:36.188Z,9.745608
2022-09-15T04:18:36.156Z,9.745955
2022-09-15T04:19:36.146Z,9.745851
2022-09-15T04:20:36.147Z,9.745944
2022-09-15T04:21:36.133Z,9.745875
2022-09-15T04:22:36.148Z,9.745912
2022-09-15T04:23:36.119Z,9.745778
2022-09-15T04:24:36.111Z,9.745969
2022-09-15T04:25:36.102Z,9.746098
2022-09-15T04:26:36.096Z,9.745701
2022-09-15T04:27:36.111Z,9.745552
2022-09-15T04:28:36.081Z,9.745592
2022-09-15T04:29:36.075Z,9.745707
2022-09-15T04:30:36.064Z,9.745659
2022-09-15T04:31:36.069Z,9.745729
2022-09-15T04:32:36.075Z,9.745579
2022-09-15T04:33:36.040Z,9.745550
2022-09-15T04:34:40.580Z,9.745504
2022-09-15T04:35:38.030Z,9.745290
2022-09-15T04:36:36.023Z,9.745240
2022-09-15T04:37:36.035Z,9.745064
2022-09-15T04:38:36.002Z,9.745146
2022-09-15T04:39:35.996Z,9.745568
2022-09-15T04:40:35.990Z,9.745648
2022-09-15T04:41:35.982Z,9.745739
2022-09-15T04:42:36.000Z,9.746066
2022-09-15T04:43:35.986Z,9.745599
2022-09-15T04:44:35.955Z,9.745411
2022-09-15T04:45:35.951Z,9.745583
2022-09-15T04:46:36.021Z,9.745569
2022-09-15T04:47:35.967Z,9.745271
2022-09-15T04:48:35.925Z,9.745532
2022-09-15T04:49:35.916Z,9.745561
2022-09-15T04:50:35.909Z,9.745456
2022-09-15T04:51:35.896Z,9.745493
2022-09-15T04:52:35.949Z,9.745461
2022-09-15T04:53:35.882Z,9.745500
2022-09-15T04:54:35.876Z,9.745464
2022-09-15T04:55:35.859Z,9.745441
2022-09-15T04:56:35.857Z,9.745399
2022-09-15T04:57:35.862Z,9.745457
2022-09-15T04:58:35.892Z,9.745394
2022-09-15T04:59:35.828Z,9.745532
2022-09-15T05:00:35.864Z,9.745465
2022-09-15T05:01:35.856Z,9.745585
2022-09-15T05:02:35.851Z,9.745508
2022-09-15T05:03:35.820Z,9.745492
2022-09-15T05:04:35.790Z,9.745708
2022-09-15T05:05:35.778Z,9.745488
2022-09-15T05:06:35.775Z,9.745564
2022-09-15T05:07:35.765Z,9.745584
2022-09-15T05:08:35.778Z,9.745418
2022-09-15T05:09:35.749Z,9.745434
2022-09-15T05:10:35.741Z,9.745521
2022-09-15T05:11:35.735Z,9.745520
2022-09-15T05:12:35.728Z,9.745441
2022-09-15T05:13:35.749Z,9.745534
2022-09-15T05:14:35.759Z,9.745534
2022-09-15T05:15:35.713Z,9.745605
2022-09-15T05:16:35.765Z,9.745537
2022-09-15T05:17:35.691Z,9.745528
2022-09-15T05:18:35.706Z,9.745556
2022-09-15T05:19:35.677Z,9.745574
2022-09-15T05:20:35.666Z,9.745597
2022-09-15T05:21:35.662Z,9.745530
2022-09-15T05:22:40.935Z,9.745522
2022-09-15T05:23:37.666Z,9.745561
2022-09-15T05:24:35.634Z,9.745553
2022-09-15T05:25:35.623Z,9.745564
2022-09-15T05:26:35.613Z,9.745512
2022-09-15T05:27:35.608Z,9.745393
2022-09-15T05:28:35.628Z,9.745342
2022-09-15T05:29:35.598Z,9.745396
2022-09-15T05:30:38.888Z,9.745517
2022-09-15T05:31:37.608Z,9.745446
2022-09-15T05:32:35.566Z,9.745358
2022-09-15T05:33:35.589Z,9.745451
2022-09-15T05:34:35.554Z,9.745372
2022-09-15T05:35:35.546Z,9.745491
2022-09-15T05:36:35.541Z,9.745580
2022-09-15T05:37:35.529Z,9.745635
2022-09-15T05:38:35.551Z,9.745378
2022-09-15T05:39:35.515Z,9.745276
2022-09-15T05:40:35.547Z,9.745335
2022-09-15T05:41:35.498Z,9.745448
2022-09-15T05:42:35.493Z,9.745552
2022-09-15T05:43:35.509Z,9.745715
2022-09-15T05:44:35.478Z,9.745685
2022-09-15T05:45:35.468Z,9.745645
2022-09-15T05:46:35.506Z,9.745568
2022-09-15T05:47:35.453Z,9.745602
2022-09-15T05:48:35.472Z,9.745591
2022-09-15T05:49:35.434Z,9.745633
2022-09-15T05:50:35.427Z,9.745524
2022-09-15T05:51:35.423Z,9.745456
2022-09-15T05:52:35.418Z,9.745626
2022-09-15T05:53:35.441Z,9.745411
2022-09-15T05:54:35.399Z,9.745168
2022-09-15T05:55:35.391Z,9.745317
2022-09-15T05:56:35.382Z,9.745298
2022-09-15T05:57:35.374Z,9.745595
2022-09-15T05:58:35.387Z,9.745680
2022-09-15T05:59:35.355Z,9.745456
2022-09-15T06:00:35.348Z,9.745135
2022-09-15T06:01:35.402Z,9.744851
2022-09-15T06:02:35.459Z,9.744849
2022-09-15T06:03:35.348Z,9.744968
2022-09-15T06:04:35.321Z,9.745316
2022-09-15T06:05:35.307Z,9.745537
2022-09-15T06:06:35.297Z,9.745611
2022-09-15T06:07:35.293Z,9.745612
2022-09-15T06:08:35.308Z,9.745605
2022-09-15T06:09:35.276Z,9.745590
2022-09-15T06:10:35.267Z,9.745495
2022-09-15T06:11:35.261Z,9.745585
2022-09-15T06:12:35.254Z,9.745613
2022-09-15T06:13:35.266Z,9.745557
2022-09-15T06:14:35.238Z,9.745586
2022-09-15T06:15:35.222Z,9.745633
2022-09-15T06:16:35.330Z,9.745579
2022-09-15T06:17:35.212Z,9.745581
2022-09-15T06:18:35.222Z,9.745465
2022-09-15T06:19:35.198Z,9.745445
2022-09-15T06:20:35.183Z,9.745451
2022-09-15T06:21:35.178Z,9.745429
2022-09-15T06:22:35.170Z,9.745612
2022-09-15T06:23:35.204Z,9.745468
2022-09-15T06:24:35.158Z,9.745480
2022-09-15T06:25:35.143Z,9.745505
2022-09-15T06:26:35.136Z,9.745485
2022-09-15T06:27:35.127Z,9.745396
2022-09-15T06:28:35.145Z,9.745487
2022-09-15T06:29:35.113Z,9.745296
2022-09-15T06:30:35.109Z,9.745363
2022-09-15T06:31:35.150Z,9.745629
2022-09-15T06:32:35.093Z,9.745348
2022-09-15T06:33:35.108Z,9.745646
2022-09-15T06:34:35.079Z,9.745749
2022-09-15T06:35:35.070Z,9.745456
2022-09-15T06:36:35.067Z,9.745438
2022-09-15T06:37:35.063Z,9.745492
2022-09-15T06:38:35.073Z,9.745399
2022-09-15T06:39:35.040Z,9.745386
2022-09-15T06:40:35.069Z,9.745469
2022-09-15T06:41:58.449Z,9.745415
2022-09-15T06:42:37.015Z,9.745599
2022-09-15T06:43:35.029Z,9.745426
2022-09-15T06:44:35.001Z,9.745380
2022-09-15T06:45:34.991Z,9.745409
2022-09-15T06:46:35.040Z,9.745355
2022-09-15T06:47:34.976Z,9.745356
2022-09-15T06:48:34.990Z,9.745492
2022-09-15T06:49:34.954Z,9.745600
2022-09-15T06:50:34.947Z,9.745268
2022-09-15T06:51:34.944Z,9.745452
2022-09-15T06:52:34.937Z,9.745420
2022-09-15T06:53:34.947Z,9.745333
2022-09-15T06:54:34.918Z,9.745589
2022-09-15T06:55:34.909Z,9.745402
2022-09-15T06:56:38.148Z,9.745343
2022-09-15T06:57:35.893Z,9.745470
2022-09-15T06:58:34.912Z,9.745579
2022-09-15T06:59:34.878Z,9.745507
2022-09-15T07:00:34.867Z,9.745700
2022-09-15T07:01:34.862Z,9.745675
2022-09-15T07:02:34.969Z,9.745681
2022-09-15T07:03:35.024Z,9.745804
2022-09-15T07:04:34.835Z,9.745676
2022-09-15T07:05:34.827Z,9.745697
2022-09-15T07:06:34.817Z,9.745672
2022-09-15T07:07:34.810Z,9.745502
2022-09-15T07:08:34.825Z,9.745670
2022-09-15T07:09:34.794Z,9.745533
2022-09-15T07:10:34.785Z,9.745491
2022-09-15T07:11:34.784Z,9.745514
2022-09-15T07:12:34.770Z,9.745563
2022-09-15T07:13:34.791Z,9.745578
2022-09-15T07:14:34.755Z,9.745639
2022-09-15T07:15:34.746Z,9.745551
2022-09-15T07:16:34.794Z,9.745519
2022-09-15T07:17:34.729Z,9.745640
2022-09-15T07:18:36.042Z,9.745400
2022-09-15T07:19:34.744Z,9.745469
2022-09-15T07:20:34.724Z,9.745493
2022-09-15T07:21:34.698Z,9.745728
2022-09-15T07:22:34.690Z,9.745513
2022-09-15T07:23:34.716Z,9.745448
2022-09-15T07:24:34.672Z,9.745593
2022-09-15T07:25:34.673Z,9.745617
2022-09-15T07:26:34.654Z,9.745795
2022-09-15T07:27:34.650Z,9.745554
2022-09-15T07:28:34.641Z,9.745431
2022-09-15T07:29:37.693Z,9.745453
2022-09-15T07:30:35.624Z,9.745475
2022-09-15T07:31:34.636Z,9.745721
2022-09-15T07:32:34.610Z,9.745606
2022-09-15T07:33:34.627Z,9.745522
2022-09-15T07:34:34.592Z,9.745383
2022-09-15T07:35:34.586Z,9.745465
2022-09-15T07:36:34.579Z,9.745485
2022-09-15T07:37:34.575Z,9.745395
2022-09-15T07:38:34.592Z,9.745497
2022-09-15T07:39:34.550Z,9.745505
2022-09-15T07:40:34.663Z,9.745515
2022-09-15T07:41:34.539Z,9.745576
2022-09-15T07:42:35.501Z,9.745538
2022-09-15T07:43:35.565Z,9.745500
2022-09-15T07:44:34.514Z,9.745528
2022-09-15T07:45:34.542Z,9.745536
2022-09-15T07:46:34.503Z,9.745422
2022-09-15T07:47:34.488Z,9.745541
2022-09-15T07:48:34.507Z,9.745481
2022-09-15T07:49:34.479Z,9.745264
2022-09-15T07:50:34.475Z,9.745408
2022-09-15T07:51:34.466Z,9.745475
2022-09-15T07:52:34.451Z,9.745440
2022-09-15T07:53:34.470Z,9.745451
2022-09-15T07:54:34.439Z,9.745531
2022-09-15T07:55:34.429Z,9.745150
2022-09-15T07:56:34.422Z,9.745278
2022-09-15T07:57:34.415Z,9.745353
2022-09-15T07:58:34.431Z,9.745460
2022-09-15T07:59:36.330Z,9.745266
2022-09-15T08:00:35.397Z,9.745328
2022-09-15T08:01:34.442Z,9.745390
2022-09-15T08:02:34.389Z,9.745340
2022-09-15T08:03:34.393Z,9.745321
2022-09-15T08:04:34.362Z,9.745497
2022-09-15T08:05:38.659Z,9.745329
2022-09-15T08:06:37.249Z,9.745484
2022-09-15T08:07:34.338Z,9.745336
2022-09-15T08:08:34.356Z,9.745483
2022-09-15T08:09:34.319Z,9.745498
2022-09-15T08:10:35.314Z,9.745797
2022-09-15T08:11:34.305Z,9.745720
2022-09-15T08:12:34.302Z,9.745521
2022-09-15T08:13:34.317Z,9.745411
2022-09-15T08:14:34.285Z,9.745341
2022-09-15T08:15:34.277Z,9.745621
2022-09-15T08:16:34.348Z,9.745811
2022-09-15T08:17:34.262Z,9.745751
2022-09-15T08:18:34.276Z,9.745919
2022-09-15T08:19:34.243Z,9.745786
2022-09-15T08:20:34.234Z,9.745676
2022-09-15T08:21:34.231Z,9.745600
2022-09-15T08:22:34.219Z,9.745641
2022-09-15T08:23:34.239Z,9.745542
2022-09-15T08:24:34.201Z,9.745642
2022-09-15T08:25:34.195Z,9.745600
2022-09-15T08:26:34.272Z,9.745487
2022-09-15T08:27:35.181Z,9.745648
2022-09-15T08:28:34.194Z,9.745698
2022-09-15T08:29:34.166Z,9.745502
2022-09-15T08:30:34.159Z,9.745465
2022-09-15T08:31:34.185Z,9.745598
2022-09-15T08:32:34.144Z,9.745584
2022-09-15T08:33:34.164Z,9.745410
2022-09-15T08:34:34.125Z,9.745522
2022-09-15T08:35:34.122Z,9.745806
2022-09-15T08:36:34.113Z,9.745910
2022-09-15T08:37:34.108Z,9.745474
2022-09-15T08:38:34.125Z,9.745302
2022-09-15T08:39:34.090Z,9.745397
2022-09-15T08:40:34.138Z,9.745377
2022-09-15T08:41:34.071Z,9.745668
2022-09-15T08:42:34.067Z,9.745713
2022-09-15T08:43:34.089Z,9.745627
2022-09-15T08:44:34.052Z,9.745610
2022-09-15T08:45:34.042Z,9.745515
2022-09-15T08:46:34.079Z,9.745424
2022-09-15T08:47:34.026Z,9.745479
2022-09-15T08:48:34.052Z,9.745688
2022-09-15T08:49:50.550Z,9.745566
2022-09-15T08:50:36.006Z,9.745625
2022-09-15T08:51:33.995Z,9.745832
2022-09-15T08:52:33.985Z,9.745813
2022-09-15T08:53:34.006Z,9.745648
2022-09-15T08:54:33.972Z,9.745576
2022-09-15T08:55:33.966Z,9.745941
2022-09-15T08:56:33.956Z,9.745826
2022-09-15T08:57:33.950Z,9.745580
2022-09-15T08:58:33.971Z,9.745559
2022-09-15T08:59:33.932Z,9.745433
2022-09-15T09:00:33.932Z,9.745667
2022-09-15T09:01:33.968Z,9.745823
2022-09-15T09:02:34.996Z,9.745955
2022-09-15T09:03:33.929Z,9.745448
2022-09-15T09:04:33.898Z,9.745763
2022-09-15T09:05:33.891Z,9.745672
2022-09-15T09:06:33.882Z,9.745980
2022-09-15T09:07:33.877Z,9.745959
2022-09-15T09:08:33.896Z,9.745967
2022-09-15T09:09:33.868Z,9.745414
2022-09-15T09:10:33.855Z,9.745348
2022-09-15T09:11:33.844Z,9.745310
2022-09-15T09:12:33.838Z,9.745486
2022-09-15T09:13:35.687Z,9.745353
2022-09-15T09:14:34.980Z,9.745334
2022-09-15T09:15:33.854Z,9.745346
2022-09-15T09:16:33.807Z,9.745138
2022-09-15T09:17:33.799Z,9.746058
2022-09-15T09:18:33.816Z,9.745711
2022-09-15T09:19:33.785Z,9.745358
2022-09-15T09:20:33.778Z,9.745402
2022-09-15T09:21:33.766Z,9.745334
2022-09-15T09:22:33.761Z,9.745278
2022-09-15T09:23:33.777Z,9.745191
2022-09-15T09:24:33.744Z,9.745588
2022-09-15T09:25:33.738Z,9.745300
2022-09-15T09:26:33.731Z,9.745085
2022-09-15T09:27:33.725Z,9.745190
2022-09-15T09:28:33.738Z,9.745472
2022-09-15T09:29:33.705Z,9.745495
2022-09-15T09:30:33.702Z,9.745348
2022-09-15T09:31:33.693Z,9.745352
2022-09-15T09:32:33.682Z,9.745399
2022-09-15T09:33:33.701Z,9.745411
2022-09-15T09:34:33.684Z,9.745478
2022-09-15T09:35:33.659Z,9.745529
2022-09-15T09:36:33.656Z,9.745422
2022-09-15T09:37:33.648Z,9.745307
2022-09-15T09:38:33.665Z,9.745656
2022-09-15T09:39:33.632Z,9.745892
2022-09-15T09:40:33.698Z,9.745785
2022-09-15T09:41:33.612Z,9.745490
2022-09-15T09:42:33.606Z,9.745517
2022-09-15T09:43:33.595Z,9.745436
2022-09-15T09:44:33.617Z,9.745507
2022-09-15T09:45:33.582Z,9.745547
2022-09-15T09:46:33.723Z,9.745520
2022-09-15T09:47:33.567Z,9.745510
2022-09-15T09:48:33.561Z,9.745328
2022-09-15T09:49:33.582Z,9.745097
2022-09-15T09:50:33.546Z,9.745160
2022-09-15T09:51:33.538Z,9.745291
2022-09-15T09:52:33.528Z,9.745353
2022-09-15T09:53:33.525Z,9.745332
2022-09-15T09:54:33.538Z,9.745598
2022-09-15T09:55:33.507Z,9.745573
2022-09-15T09:56:33.501Z,9.745611
2022-09-15T09:57:35.096Z,9.745492
2022-09-15T09:58:33.488Z,9.745567
2022-09-15T09:59:33.502Z,9.745305
2022-09-15T10:00:33.471Z,9.745235
2022-09-15T10:01:33.484Z,9.745304
2022-09-15T10:02:33.452Z,9.745516
2022-09-15T10:03:33.449Z,9.745446
2022-09-15T10:04:33.486Z,9.745554
2022-09-15T10:05:33.434Z,9.745431
2022-09-15T10:06:33.423Z,9.745480
2022-09-15T10:07:33.418Z,9.745393
2022-09-15T10:08:33.407Z,9.745512
2022-09-15T10:09:33.598Z,9.745527
2022-09-15T10:10:34.392Z,9.745586
2022-09-15T10:11:33.387Z,9.745317
2022-09-15T10:12:33.363Z,9.745779
2022-09-15T10:13:34.366Z,9.745357
2022-09-15T10:14:33.392Z,9.745551
2022-09-15T10:15:33.349Z,9.745411
2022-09-15T10:16:33.393Z,9.745599
2022-09-15T10:17:33.338Z,9.745418
2022-09-15T10:18:33.334Z,9.745401
2022-09-15T10:19:33.346Z,9.745424
2022-09-15T10:20:33.319Z,9.745571
2022-09-15T10:21:33.307Z,9.745750
2022-09-15T10:22:33.300Z,9.745498
2022-09-15T10:23:33.290Z,9.745461
2022-09-15T10:24:33.311Z,9.745623
2022-09-15T10:25:49.689Z,9.745409
2022-09-15T10:26:35.265Z,9.745391
2022-09-15T10:27:33.261Z,9.745609
2022-09-15T10:28:33.252Z,9.745549
2022-09-15T10:29:33.266Z,9.745534
2022-09-15T10:30:33.236Z,9.745518
2022-09-15T10:31:33.256Z,9.745445
2022-09-15T10:32:33.222Z,9.745455
2022-09-15T10:33:33.216Z,9.745326
2022-09-15T10:34:33.210Z,9.745331
2022-09-15T10:35:33.227Z,9.745448
2022-09-15T10:36:33.191Z,9.745554
2022-09-15T10:37:33.183Z,9.745348
2022-09-15T10:38:33.172Z,9.745461
2022-09-15T10:39:33.172Z,9.745530
2022-09-15T10:40:33.274Z,9.745492
2022-09-15T10:41:33.151Z,9.745506
2022-09-15T10:42:33.145Z,9.745271
2022-09-15T10:43:33.134Z,9.745254
2022-09-15T10:44:33.125Z,9.745231
2022-09-15T10:45:33.171Z,9.745183
2022-09-15T10:46:35.472Z,9.745306
2022-09-15T10:47:34.103Z,9.745405
2022-09-15T10:48:33.092Z,9.745498
2022-09-15T10:49:33.082Z,9.745503
2022-09-15T10:50:33.097Z,9.745519
2022-09-15T10:51:33.066Z,9.745651
2022-09-15T10:52:33.076Z,9.745618
2022-09-15T10:53:33.052Z,9.745614
2022-09-15T10:54:33.045Z,9.745625
2022-09-15T10:55:51.585Z,9.745729
2022-09-15T10:56:35.032Z,9.745750
2022-09-15T10:57:33.024Z,9.745467
2022-09-15T10:58:33.018Z,9.745367
2022-09-15T10:59:33.017Z,9.745543
2022-09-15T11:00:33.099Z,9.745694
2022-09-15T11:01:32.986Z,9.745419
2022-09-15T11:02:33.044Z,9.745729
2022-09-15T11:03:32.975Z,9.745955
2022-09-15T11:04:32.969Z,9.746028
2022-09-15T11:05:32.987Z,9.745897
2022-09-15T11:06:33.033Z,9.745768
2022-09-15T11:07:32.939Z,9.745864
2022-09-15T11:08:32.933Z,9.745979
2022-09-15T11:09:32.923Z,9.745803
2022-09-15T11:10:32.948Z,9.745862
2022-09-15T11:11:32.946Z,9.745679
2022-09-15T11:12:32.901Z,9.745743
2022-09-15T11:13:32.896Z,9.745745
2022-09-15T11:14:32.885Z,9.745782
2022-09-15T11:15:32.880Z,9.746003
2022-09-15T11:16:32.932Z,9.745905
2022-09-15T11:17:32.861Z,9.745843
2022-09-15T11:18:32.852Z,9.745705
2022-09-15T11:19:32.853Z,9.745193
2022-09-15T11:20:32.836Z,9.746030
2022-09-15T11:21:32.848Z,9.745626
2022-09-15T11:22:32.849Z,9.745600
2022-09-15T11:23:32.818Z,9.745723
2022-09-15T11:24:32.802Z,9.745473
2022-09-15T11:25:32.792Z,9.745785
2022-09-15T11:26:32.816Z,9.745831
2022-09-15T11:27:32.783Z,9.745767
2022-09-15T11:28:32.771Z,9.746079
2022-09-15T11:29:32.764Z,9.746425
2022-09-15T11:30:32.757Z,9.746136
2022-09-15T11:31:32.839Z,9.745915
2022-09-15T11:32:32.743Z,9.745866
2022-09-15T11:33:32.739Z,9.745708
2022-09-15T11:34:32.728Z,9.745711
2022-09-15T11:35:32.725Z,9.745792
2022-09-15T11:36:32.739Z,9.745898
2022-09-15T11:37:32.702Z,9.745789
2022-09-15T11:38:32.694Z,9.745717
2022-09-15T11:39:32.688Z,9.745922
2022-09-15T11:40:32.725Z,9.745812
2022-09-15T11:41:32.701Z,9.745592
2022-09-15T11:42:32.662Z,9.745702
2022-09-15T11:43:32.665Z,9.745605
2022-09-15T11:44:32.651Z,9.745628